Time;durP1;ratioP1;P1;durP2;ratioP2;P2;SDS_P1;SDS_P2;PMS_P1;PMS_P2;Temp;Humidity;BMP_temperature;BMP_pressure;BME280_temperature;BME280_humidity;BME280_pressure;Samples;Min_cycle;Max_cycle;Signal;HPM_P1;HPM_P2
2022/01/25 10:01:27;;;;;;;44.83;17.95;;;;;;;-4.13;76.42;100959.19;1801540;77;21588;-37
2022/01/25 10:03:55;;;;;;;20.62;11.48;;;;;;;-4.05;76.22;100953.84;1718922;81;20961;-36
2022/01/25 10:06:22;;;;;;;18.70;10.38;;;;;;;-4.00;75.59;100949.05;1719082;82;21072;-47
2022/01/25 10:08:53;;;;;;;22.40;12.15;;;;;;;-4.02;75.73;100945.48;1719926;81;21050;-45
2022/01/25 10:11:23;;;;;;;23.18;11.63;;;;;;;-4.07;75.72;100937.88;1710970;81;21688;-38
2022/01/25 10:14:51;;;;;;;19.32;10.18;;;;;;;-4.08;75.93;100938.67;1708690;81;21028;-38
2022/01/25 10:22:32;;;;;;;21.80;10.85;;;;;;;-3.87;75.80;100935.02;1724139;81;21033;-38
2022/01/25 10:30:22;;;;;;;18.77;10.50;;;;;;;-3.75;74.27;100920.50;1728401;81;21716;-36
2022/01/25 10:33:33;;;;;;;15.63;8.30;;;;;;;-3.71;74.73;100908.81;1707088;81;21092;-44
2022/01/25 10:36:11;;;;;;;18.45;9.05;;;;;;;-3.51;74.18;100911.39;1724571;81;22020;-36
2022/01/25 10:38:50;;;;;;;15.50;7.70;;;;;;;-3.48;73.40;100909.02;1724325;81;21052;-37
2022/01/25 10:41:21;;;;;;;16.05;8.63;;;;;;;-3.39;72.97;100909.64;1723086;81;21025;-37
2022/01/25 10:43:49;;;;;;;15.93;8.53;;;;;;;-3.33;72.40;100910.03;1721234;81;21441;-38
2022/01/25 10:46:27;;;;;;;12.33;7.33;;;;;;;-3.28;72.10;100908.66;1702182;83;21040;-36
2022/01/25 10:49:04;;;;;;;15.15;7.40;;;;;;;-3.21;71.94;100909.94;1707730;82;21982;-37
2022/01/25 10:51:38;;;;;;;11.65;7.25;;;;;;;-3.26;71.15;100906.19;1711139;82;22048;-44
2022/01/25 10:54:20;;;;;;;14.90;7.72;;;;;;;-3.34;70.98;100903.55;1671580;83;21101;-37
2022/01/25 10:57:00;;;;;;;14.25;8.28;;;;;;;-3.41;70.61;100895.87;1673061;84;21048;-37
2022/01/25 10:59:28;;;;;;;14.13;8.30;;;;;;;-3.50;71.16;100893.97;1650919;84;21497;-37
2022/01/25 11:01:59;;;;;;;16.27;8.28;;;;;;;-3.45;71.69;100891.72;1710512;82;20981;-45
2022/01/25 11:04:31;;;;;;;19.30;10.88;;;;;;;-3.34;71.92;100895.47;1716126;82;21041;-44
2022/01/25 11:07:04;;;;;;;11.45;7.28;;;;;;;-3.17;71.90;100885.04;1727128;81;20989;-45
2022/01/25 11:09:40;;;;;;;17.77;8.75;;;;;;;-3.01;71.70;100869.88;1660246;84;21483;-44
2022/01/25 11:12:09;;;;;;;16.37;9.73;;;;;;;-2.85;71.46;100861.45;1724223;81;20992;-36
2022/01/25 11:17:34;;;;;;;20.75;10.43;;;;;;;-2.73;70.43;100867.33;1716444;81;20981;-44
2022/01/25 11:20:58;;;;;;;20.40;11.40;;;;;;;-2.64;70.67;100863.58;1717059;81;21081;-36
2022/01/25 11:23:37;;;;;;;23.18;11.95;;;;;;;-2.59;70.22;100860.91;1714499;81;21839;-38
2022/01/25 11:26:40;;;;;;;17.10;8.80;;;;;;;-2.56;69.86;100856.84;1715675;81;21949;-38
2022/01/25 11:30:19;;;;;;;24.90;11.22;;;;;;;-2.58;69.18;100858.83;1714131;81;21196;-45
2022/01/25 11:33:53;;;;;;;21.75;11.85;;;;;;;-2.86;69.83;100864.80;1718478;81;21057;-39
2022/01/25 11:41:24;;;;;;;24.70;12.03;;;;;;;-3.00;70.47;100865.63;1716143;81;21960;-43
2022/01/25 11:47:42;;;;;;;26.05;14.05;;;;;;;-2.90;70.13;100853.87;1719086;81;21032;-44
2022/01/25 11:50:45;;;;;;;24.47;12.82;;;;;;;-3.01;70.51;100847.22;1678017;82;21092;-42
2022/01/25 11:53:55;;;;;;;37.15;17.40;;;;;;;-2.91;70.66;100842.27;1717848;81;21005;-44
2022/01/25 11:57:24;;;;;;;20.15;11.00;;;;;;;-2.82;70.20;100845.41;1719521;81;21101;-38
2022/01/25 12:00:48;;;;;;;22.32;10.85;;;;;;;-2.83;69.99;100848.36;1720316;81;21655;-37
2022/01/25 12:04:28;;;;;;;18.37;9.48;;;;;;;-2.92;69.63;100852.02;1705032;81;21080;-39
2022/01/25 12:12:08;;;;;;;17.07;9.23;;;;;;;-3.26;70.07;100851.16;1720748;81;21209;-45
2022/01/25 12:15:19;;;;;;;19.92;10.85;;;;;;;-3.44;71.07;100855.99;1722855;81;21023;-38
2022/01/25 12:18:46;;;;;;;17.52;10.48;;;;;;;-3.29;71.73;100853.55;1695010;81;21025;-43
2022/01/25 12:22:12;;;;;;;19.90;10.68;;;;;;;-3.14;71.74;100842.98;1718020;81;21643;-45
2022/01/25 12:25:45;;;;;;;22.77;11.33;;;;;;;-2.97;71.55;100846.60;1724567;81;21481;-44
2022/01/25 12:29:00;;;;;;;16.90;8.90;;;;;;;-2.81;71.40;100836.53;1692280;82;21127;-43
2022/01/25 12:35:08;;;;;;;18.65;10.18;;;;;;;-2.96;70.39;100838.13;1708372;81;20980;-36
2022/01/25 12:38:09;;;;;;;24.95;11.93;;;;;;;-3.13;70.85;100840.02;1718290;81;21449;-38
2022/01/25 12:41:08;;;;;;;20.65;10.13;;;;;;;-3.28;71.26;100847.63;1719987;81;21197;-44
2022/01/25 12:44:09;;;;;;;17.92;10.38;;;;;;;-3.34;71.52;100834.05;1712883;81;21026;-37
2022/01/25 12:46:40;;;;;;;21.25;10.23;;;;;;;-3.40;71.72;100834.06;1724570;81;21906;-37
2022/01/25 12:49:38;;;;;;;18.90;10.78;;;;;;;-3.52;72.09;100836.31;1719900;81;21025;-45
2022/01/25 12:52:29;;;;;;;24.20;13.20;;;;;;;-3.52;72.62;100833.77;1726034;81;21004;-43
2022/01/25 12:55:05;;;;;;;27.52;15.15;;;;;;;-3.54;72.42;100834.06;1721304;81;21105;-36
2022/01/25 12:57:57;;;;;;;26.07;13.90;;;;;;;-3.60;72.39;100822.12;1720184;81;21978;-44
2022/01/25 13:01:09;;;;;;;39.85;18.55;;;;;;;-3.59;72.67;100828.16;1725895;81;21029;-37
2022/01/25 13:04:05;;;;;;;30.92;14.33;;;;;;;-3.56;72.88;100824.11;1708863;81;21522;-44
2022/01/25 13:06:41;;;;;;;25.70;13.13;;;;;;;-3.55;72.60;100821.16;1701184;83;21659;-36
2022/01/25 13:09:33;;;;;;;27.60;14.40;;;;;;;-3.59;72.47;100824.33;1704682;82;21422;-37
2022/01/25 13:12:25;;;;;;;30.72;14.35;;;;;;;-3.63;71.98;100823.23;1706559;82;20978;-38
2022/01/25 13:14:51;;;;;;;26.35;13.15;;;;;;;-3.70;71.96;100822.73;1704494;83;21932;-37
2022/01/25 13:17:23;;;;;;;26.17;14.10;;;;;;;-3.82;71.91;100824.98;1703354;83;21391;-36
2022/01/25 13:19:57;;;;;;;23.00;12.33;;;;;;;-3.91;72.20;100819.66;1706083;83;21048;-43
2022/01/25 13:22:42;;;;;;;24.72;13.43;;;;;;;-3.95;72.58;100811.28;1649264;85;21012;-38
2022/01/25 13:27:53;;;;;;;20.00;10.80;;;;;;;-3.96;72.76;100806.95;1705163;83;21074;-36
2022/01/25 13:30:45;;;;;;;24.07;12.82;;;;;;;-3.98;72.61;100803.42;1713094;82;21670;-35
2022/01/25 13:33:17;;;;;;;23.98;12.28;;;;;;;-4.00;72.54;100794.39;1714903;83;21874;-37
